Terminal Aerodrome Forecast
Issued by NWS Twin Cities, MN

Home | Current Version | Previous Version | Graphics & Text | Print | Product List | Glossary On
Versions: 1 2 3 4 5 6 7 8 9 10 11 12 13 14 15 16 17 18 19
239
FTUS43 KMPX 221238 AAA
TAFSTC
TAF AMD
KSTC 221238Z 2213/2312 VRB03KT 3SM BR BKN110
     FM221400 02004KT P6SM SCT060 BKN120
     FM222000 35007KT P6SM SCT025 BKN035
     FM222300 33008KT P6SM VCSH BKN025
     FM230300 34009KT P6SM OVC006
     FM231000 36008KT P6SM BKN045=

USA.gov is the U.S. government's official web portal to all federal, state and local government web resources and services.